createdAt,value
2018-11-13T00:00:22.536Z,34.63
2018-11-13T00:02:52.104Z,35.33
2018-11-13T00:05:21.293Z,27.60
2018-11-13T00:07:50.051Z,28.37
2018-11-13T00:10:18.928Z,29.93
2018-11-13T00:12:47.683Z,31.83
2018-11-13T00:15:16.478Z,32.30
2018-11-13T00:17:45.324Z,34.70
2018-11-13T00:20:16.109Z,39.13
2018-11-13T00:22:45.326Z,34.13
2018-11-13T00:25:15.271Z,36.50
2018-11-13T00:27:44.530Z,39.40
2018-11-13T00:30:16.324Z,42.63
2018-11-13T00:32:45.434Z,44.40
2018-11-13T00:35:15.005Z,45.80
2018-11-13T00:37:44.150Z,43.60
2018-11-13T00:40:13.519Z,46.37
2018-11-13T00:42:43.326Z,51.40
2018-11-13T00:45:12.175Z,50.13
2018-11-13T00:47:40.940Z,40.07
2018-11-13T00:50:11.109Z,47.47
2018-11-13T00:52:40.415Z,44.13
2018-11-13T00:55:09.494Z,46.53
2018-11-13T00:57:38.755Z,46.03
2018-11-13T01:00:11.275Z,45.33
2018-11-13T01:02:40.139Z,48.37
2018-11-13T01:05:10.646Z,48.30
2018-11-13T01:07:39.497Z,45.60
2018-11-13T01:10:09.530Z,49.47
2018-11-13T01:12:38.390Z,43.90
2018-11-13T01:15:08.665Z,36.33
2018-11-13T01:17:37.068Z,39.03
2018-11-13T01:20:06.362Z,39.47
2018-11-13T01:22:35.358Z,37.33
2018-11-13T01:25:04.076Z,34.83
2018-11-13T01:27:32.862Z,34.43
2018-11-13T01:30:01.649Z,34.93
2018-11-13T01:32:30.540Z,35.90
2018-11-13T01:34:59.329Z,33.13
2018-11-13T01:37:28.052Z,32.93
2018-11-13T01:39:56.809Z,35.53
2018-11-13T01:42:26.006Z,35.13
2018-11-13T01:44:54.754Z,44.33
2018-11-13T01:47:23.567Z,44.93
2018-11-13T01:49:52.428Z,40.83
2018-11-13T01:52:21.199Z,39.37
2018-11-13T01:54:49.922Z,39.10
2018-11-13T01:57:18.761Z,40.30
2018-11-13T01:59:47.598Z,48.27
2018-11-13T02:02:16.400Z,48.90
2018-11-13T02:04:45.246Z,54.70
2018-11-13T02:07:13.978Z,46.67
2018-11-13T02:09:42.788Z,43.40
2018-11-13T02:12:11.930Z,41.50
2018-11-13T02:14:40.689Z,38.60
2018-11-13T02:17:09.452Z,36.30
2018-11-13T02:19:38.256Z,39.63
2018-11-13T02:22:07.114Z,39.67
2018-11-13T02:24:35.868Z,39.93
2018-11-13T02:27:04.665Z,50.00
2018-11-13T02:29:33.483Z,48.37
2018-11-13T02:32:04.529Z,46.93
2018-11-13T02:34:33.286Z,48.87
2018-11-13T02:37:02.017Z,43.83
2018-11-13T02:39:30.760Z,42.67
2018-11-13T02:41:59.573Z,43.67
2018-11-13T02:44:28.301Z,45.47
2018-11-13T02:46:57.074Z,48.47
2018-11-13T02:49:25.889Z,46.57
2018-11-13T02:51:54.845Z,40.33
2018-11-13T02:54:23.636Z,40.77
2018-11-13T02:56:52.505Z,40.93
2018-11-13T02:59:21.244Z,38.20
2018-11-13T03:01:50.080Z,38.03
2018-11-13T03:04:18.909Z,52.73
2018-11-13T03:06:47.711Z,54.03
2018-11-13T03:09:16.534Z,57.63
2018-11-13T03:11:45.615Z,54.20
2018-11-13T03:14:14.349Z,56.53
2018-11-13T03:16:43.052Z,54.23
2018-11-13T03:19:11.779Z,56.10
2018-11-13T03:21:40.523Z,57.20
2018-11-13T03:24:09.343Z,60.13
2018-11-13T03:26:38.086Z,64.00
2018-11-13T03:29:06.840Z,64.80
2018-11-13T03:31:37.026Z,62.17
2018-11-13T03:34:05.773Z,66.97
2018-11-13T03:36:34.552Z,63.93
2018-11-13T03:39:03.817Z,68.40
2018-11-13T03:41:32.651Z,62.00
2018-11-13T03:44:01.427Z,64.03
2018-11-13T03:46:30.216Z,59.77
2018-11-13T03:48:59.018Z,61.13
2018-11-13T03:51:27.825Z,64.17
2018-11-13T03:53:56.607Z,60.20
2018-11-13T03:56:25.411Z,57.00
2018-11-13T03:58:54.206Z,62.30
2018-11-13T04:01:22.938Z,63.47
2018-11-13T04:03:52.105Z,62.63
2018-11-13T04:06:20.875Z,54.37
2018-11-13T04:08:49.752Z,56.53
2018-11-13T04:11:18.594Z,54.50
2018-11-13T04:13:47.560Z,58.97
2018-11-13T04:16:16.342Z,57.13
2018-11-13T04:18:45.200Z,55.60
2018-11-13T04:21:13.900Z,56.03
2018-11-13T04:23:42.671Z,54.90
2018-11-13T04:26:11.438Z,54.57
2018-11-13T04:28:40.275Z,55.97
2018-11-13T04:31:09.137Z,52.40
2018-11-13T04:33:37.979Z,53.07
2018-11-13T04:36:06.830Z,51.10
2018-11-13T04:38:35.589Z,52.10
2018-11-13T04:41:04.486Z,52.33
2018-11-13T04:43:33.506Z,51.77
2018-11-13T04:46:02.289Z,52.90
2018-11-13T04:48:31.049Z,49.67
2018-11-13T04:50:59.946Z,49.17
2018-11-13T04:53:28.846Z,56.73
2018-11-13T04:55:57.765Z,48.40
2018-11-13T04:58:26.655Z,50.83
2018-11-13T05:00:55.570Z,50.50
2018-11-13T05:03:24.388Z,47.43
2018-11-13T05:05:53.154Z,45.97
2018-11-13T05:08:21.940Z,47.17
2018-11-13T05:10:50.681Z,42.47
2018-11-13T05:13:19.437Z,43.53
2018-11-13T05:15:48.261Z,44.87
2018-11-13T05:18:17.131Z,40.33
2018-11-13T05:20:45.936Z,42.40
2018-11-13T05:23:14.804Z,41.30
2018-11-13T05:25:43.770Z,41.33
2018-11-13T05:28:12.602Z,37.80
2018-11-13T05:30:41.474Z,40.40
2018-11-13T05:33:10.384Z,40.17
2018-11-13T05:35:39.227Z,38.37
2018-11-13T05:38:08.104Z,36.97
2018-11-13T05:40:36.898Z,35.90
2018-11-13T05:43:05.681Z,34.93
2018-11-13T05:45:34.437Z,36.60
2018-11-13T05:48:03.245Z,36.77
2018-11-13T05:50:31.994Z,37.77
2018-11-13T05:53:00.787Z,36.97
2018-11-13T05:55:29.562Z,33.77
2018-11-13T05:57:58.316Z,39.53
2018-11-13T06:00:34.306Z,35.57
2018-11-13T06:03:04.013Z,36.80
2018-11-13T06:05:33.198Z,34.73
2018-11-13T06:08:02.425Z,38.63
2018-11-13T06:10:37.760Z,38.40
2018-11-13T06:13:06.643Z,35.60
2018-11-13T06:15:35.498Z,35.90
2018-11-13T06:18:04.389Z,41.73
2018-11-13T06:20:33.219Z,35.40
2018-11-13T06:23:02.101Z,34.97
2018-11-13T06:25:30.915Z,38.07
2018-11-13T06:27:59.675Z,36.40
2018-11-13T06:30:28.718Z,39.13
2018-11-13T06:32:57.572Z,35.30
2018-11-13T06:35:26.384Z,37.50
2018-11-13T06:37:55.194Z,38.57
2018-11-13T06:40:24.042Z,36.50
2018-11-13T06:42:52.924Z,40.07
2018-11-13T06:45:22.803Z,39.57
2018-11-13T06:47:51.934Z,36.80
2018-11-13T06:50:20.712Z,36.17
2018-11-13T06:52:50.098Z,36.57
2018-11-13T06:55:29.709Z,36.97
2018-11-13T06:57:58.503Z,32.90
2018-11-13T07:00:27.364Z,33.70
2018-11-13T07:02:57.436Z,30.10
2018-11-13T07:05:26.304Z,33.27
2018-11-13T07:07:55.172Z,30.07
2018-11-13T07:10:26.036Z,31.60
2018-11-13T07:13:09.545Z,33.00
2018-11-13T07:15:38.312Z,28.37
2018-11-13T07:18:07.113Z,30.67
2018-11-13T07:20:36.156Z,26.80
2018-11-13T07:23:04.957Z,27.20
2018-11-13T07:25:33.777Z,29.03
2018-11-13T07:28:02.661Z,23.23
2018-11-13T07:30:31.419Z,25.47
2018-11-13T07:33:00.282Z,25.53
2018-11-13T07:35:29.077Z,25.53
2018-11-13T07:37:59.064Z,23.50
2018-11-13T07:40:28.015Z,23.37
2018-11-13T07:42:57.072Z,22.97
2018-11-13T07:45:25.856Z,22.23
2018-11-13T07:47:54.971Z,20.97
2018-11-13T07:50:23.765Z,21.13
2018-11-13T07:52:52.657Z,22.53
2018-11-13T07:55:21.448Z,23.03
2018-11-13T07:57:50.274Z,18.67
2018-11-13T08:00:20.817Z,20.43
2018-11-13T08:02:51.045Z,21.03
2018-11-13T08:05:19.845Z,17.50
2018-11-13T08:07:48.640Z,18.23
2018-11-13T08:10:17.453Z,19.30
2018-11-13T08:12:46.915Z,17.40
2018-11-13T08:15:16.913Z,14.27
2018-11-13T08:17:45.957Z,15.53
2018-11-13T08:20:15.764Z,110.50
2018-11-13T08:22:44.754Z,15.50
2018-11-13T08:25:13.686Z,13.57
2018-11-13T08:27:43.083Z,12.07
2018-11-13T08:30:17.196Z,14.10
2018-11-13T08:32:46.783Z,12.57
2018-11-13T08:35:15.834Z,13.57
2018-11-13T08:37:44.589Z,10.77
2018-11-13T08:40:14.799Z,10.20
2018-11-13T08:42:44.436Z,11.47
2018-11-13T08:45:13.744Z,12.23
2018-11-13T08:47:42.777Z,11.70
2018-11-13T08:50:12.125Z,10.00
2018-11-13T08:52:41.702Z,10.50
2018-11-13T08:55:10.979Z,9.83
2018-11-13T08:57:39.735Z,10.90
2018-11-13T09:00:10.551Z,10.13
2018-11-13T09:02:39.594Z,9.00
2018-11-13T09:05:08.991Z,9.93
2018-11-13T09:07:37.859Z,8.13
2018-11-13T09:10:09.420Z,9.70
2018-11-13T09:12:38.287Z,7.27
2018-11-13T09:15:09.854Z,8.30
2018-11-13T09:17:38.574Z,9.23
2018-11-13T09:20:08.965Z,9.93
2018-11-13T09:22:37.756Z,11.57
2018-11-13T09:25:09.255Z,10.53
2018-11-13T09:27:38.034Z,9.30
2018-11-13T09:30:09.232Z,10.23
2018-11-13T09:32:38.654Z,10.73
2018-11-13T09:35:07.832Z,10.07
2018-11-13T09:37:36.851Z,10.27
2018-11-13T09:40:07.918Z,11.97
2018-11-13T09:42:36.932Z,10.10
2018-11-13T09:45:05.894Z,10.50
2018-11-13T09:47:34.871Z,10.40
2018-11-13T09:50:03.632Z,12.10
2018-11-13T09:52:32.388Z,10.43
2018-11-13T09:55:01.218Z,10.37
2018-11-13T09:57:30.108Z,11.50
2018-11-13T09:59:59.000Z,14.03
2018-11-13T10:02:28.474Z,10.20
2018-11-13T10:04:57.219Z,10.50
2018-11-13T10:07:25.370Z,12.47
2018-11-13T10:09:54.411Z,10.83
2018-11-13T10:12:23.205Z,10.57
2018-11-13T10:14:51.925Z,10.90
2018-11-13T10:17:20.744Z,10.87
2018-11-13T10:19:49.566Z,13.83
2018-11-13T10:22:18.351Z,8.97
2018-11-13T10:24:53.817Z,9.03
2018-11-13T10:27:22.645Z,8.40
2018-11-13T10:29:51.518Z,8.70
2018-11-13T10:32:20.269Z,8.07
2018-11-13T10:34:49.187Z,7.23
2018-11-13T10:37:17.982Z,5.80
2018-11-13T10:39:46.746Z,6.70
2018-11-13T10:42:15.622Z,7.00
2018-11-13T10:44:45.078Z,6.07
2018-11-13T10:47:13.823Z,6.97
2018-11-13T10:49:42.549Z,7.30
2018-11-13T10:52:11.321Z,7.60
2018-11-13T10:54:40.305Z,6.00
2018-11-13T10:57:09.092Z,7.60
2018-11-13T10:59:37.845Z,8.17
2018-11-13T11:02:11.949Z,5.20
2018-11-13T11:04:42.032Z,7.03
2018-11-13T11:07:10.942Z,8.90
2018-11-13T11:09:39.660Z,6.67
2018-11-13T11:12:08.570Z,6.77
2018-11-13T11:14:37.310Z,8.63
2018-11-13T11:17:06.345Z,6.40
2018-11-13T11:19:35.214Z,7.40
2018-11-13T11:22:03.924Z,6.63
2018-11-13T11:24:32.672Z,6.20
2018-11-13T11:27:01.410Z,6.60
2018-11-13T11:29:30.168Z,8.10
2018-11-13T11:31:58.947Z,6.73
2018-11-13T11:34:27.709Z,7.50
2018-11-13T11:36:56.497Z,9.20
2018-11-13T11:39:25.300Z,6.33
2018-11-13T11:41:54.115Z,9.43
2018-11-13T11:44:23.023Z,8.43
2018-11-13T11:46:51.797Z,8.83
2018-11-13T11:49:20.573Z,4.43
2018-11-13T11:51:49.296Z,7.80
2018-11-13T11:54:18.053Z,10.63
2018-11-13T11:56:46.767Z,7.40
2018-11-13T11:59:15.535Z,6.17
2018-11-13T12:01:44.336Z,9.53
2018-11-13T12:04:13.086Z,7.47
2018-11-13T12:06:41.804Z,8.70
2018-11-13T12:09:11.188Z,7.73
2018-11-13T12:11:41.014Z,6.57
2018-11-13T12:14:10.902Z,6.77
2018-11-13T12:16:39.685Z,8.00
2018-11-13T12:19:09.472Z,5.53
2018-11-13T12:21:38.377Z,5.30
2018-11-13T12:24:07.213Z,4.10
2018-11-13T12:26:36.713Z,5.97
2018-11-13T12:29:05.970Z,5.87
2018-11-13T12:31:34.764Z,7.13
2018-11-13T12:34:03.549Z,8.10
2018-11-13T12:36:32.287Z,4.03
2018-11-13T12:39:01.224Z,5.30
2018-11-13T12:41:29.710Z,2.67
2018-11-13T12:43:58.551Z,2.90
2018-11-13T12:46:27.460Z,4.60
2018-11-13T12:48:56.392Z,4.57
2018-11-13T12:51:30.780Z,2.20
2018-11-13T12:53:59.601Z,2.67
2018-11-13T12:56:28.684Z,2.23
2018-11-13T12:58:57.438Z,2.07
2018-11-13T13:01:26.622Z,2.97
2018-11-13T13:03:55.518Z,1.67
2018-11-13T13:06:24.432Z,3.17
2018-11-13T13:08:53.321Z,2.73
2018-11-13T13:11:22.199Z,2.60
2018-11-13T13:13:55.181Z,2.40
2018-11-13T13:16:24.047Z,4.47
2018-11-13T13:18:52.968Z,3.07
2018-11-13T13:21:21.819Z,3.00
2018-11-13T13:23:50.702Z,3.37
2018-11-13T13:26:19.580Z,2.50
2018-11-13T13:28:49.053Z,4.63
2018-11-13T13:31:17.932Z,3.83
2018-11-13T13:33:46.697Z,4.17
2018-11-13T13:36:15.413Z,2.63
2018-11-13T13:38:44.423Z,6.13
2018-11-13T13:41:14.149Z,3.17
2018-11-13T13:43:43.587Z,4.43
2018-11-13T13:46:12.584Z,5.70
2018-11-13T13:48:41.547Z,2.70
2018-11-13T13:51:10.482Z,5.47
2018-11-13T13:53:39.376Z,4.80
2018-11-13T13:56:08.415Z,6.67
2018-11-13T13:58:37.424Z,7.73
2018-11-13T14:01:06.417Z,4.67
2018-11-13T14:03:36.437Z,3.90
2018-11-13T14:06:05.414Z,4.80
2018-11-13T14:08:34.360Z,4.97
2018-11-13T14:11:03.328Z,4.23
2018-11-13T14:13:32.213Z,6.00
2018-11-13T14:16:01.125Z,2.90
2018-11-13T14:18:29.996Z,5.67
2018-11-13T14:20:58.930Z,3.50
2018-11-13T14:23:27.676Z,3.67
2018-11-13T14:26:06.064Z,3.07
2018-11-13T14:28:44.410Z,3.87
2018-11-13T14:31:23.452Z,2.97
2018-11-13T14:34:03.121Z,2.93
2018-11-13T14:36:43.341Z,5.77
2018-11-13T14:39:19.923Z,4.37
2018-11-13T14:41:57.302Z,5.00
2018-11-13T14:44:36.219Z,5.80
2018-11-13T14:47:15.396Z,4.83
2018-11-13T14:49:56.376Z,3.63
2018-11-13T14:52:34.928Z,6.57
2018-11-13T14:55:16.940Z,5.50
2018-11-13T14:57:53.698Z,3.23
2018-11-13T15:00:32.489Z,6.60
2018-11-13T15:03:09.296Z,5.13
2018-11-13T15:05:45.440Z,4.10
2018-11-13T15:08:19.750Z,3.90
2018-11-13T15:10:54.891Z,6.50
2018-11-13T15:13:33.686Z,4.70
2018-11-13T15:16:12.201Z,10.37
2018-11-13T15:18:50.002Z,7.60
2018-11-13T15:21:26.921Z,5.53
2018-11-13T15:24:03.824Z,4.80
2018-11-13T15:26:43.070Z,8.30
2018-11-13T15:29:18.784Z,7.13
2018-11-13T15:31:56.404Z,7.60
2018-11-13T15:34:36.508Z,6.17
2018-11-13T15:37:12.626Z,4.73
2018-11-13T15:39:54.164Z,7.53
2018-11-13T15:42:30.219Z,8.47
2018-11-13T15:45:07.110Z,6.53
2018-11-13T15:47:46.701Z,5.07
2018-11-13T15:50:27.123Z,8.97
2018-11-13T15:53:04.076Z,7.83
2018-11-13T15:55:43.373Z,7.87
2018-11-13T15:58:12.648Z,4.80
2018-11-13T16:00:42.545Z,7.87
2018-11-13T16:03:13.243Z,6.73
2018-11-13T16:05:44.108Z,4.87
2018-11-13T16:08:13.308Z,7.67
2018-11-13T16:10:42.134Z,5.57
2018-11-13T16:13:13.863Z,6.63
2018-11-13T16:15:44.921Z,5.23
2018-11-13T16:18:17.572Z,6.20
2018-11-13T16:20:47.789Z,7.13
2018-11-13T16:23:18.202Z,9.00
2018-11-13T16:25:49.535Z,5.80
2018-11-13T16:28:19.532Z,6.83
2018-11-13T16:30:50.063Z,5.70
2018-11-13T16:33:20.267Z,6.33
2018-11-13T16:35:51.016Z,4.40
2018-11-13T16:38:22.262Z,6.13
2018-11-13T16:40:54.242Z,5.80
2018-11-13T16:43:26.740Z,6.07
2018-11-13T16:45:56.955Z,6.90
2018-11-13T16:48:27.409Z,4.30
2018-11-13T16:50:57.801Z,5.37
2018-11-13T16:53:28.065Z,6.70
2018-11-13T16:56:03.121Z,3.77
2018-11-13T16:58:33.077Z,6.77
2018-11-13T17:01:04.025Z,7.80
2018-11-13T17:03:35.819Z,3.87
2018-11-13T17:06:06.953Z,5.60
2018-11-13T17:08:38.705Z,6.73
2018-11-13T17:11:09.986Z,6.33
2018-11-13T17:13:41.675Z,7.47
2018-11-13T17:16:12.499Z,6.13
2018-11-13T17:18:43.342Z,6.70
2018-11-13T17:21:14.072Z,4.50
2018-11-13T17:23:44.788Z,7.03
2018-11-13T17:26:16.031Z,5.57
2018-11-13T17:28:46.675Z,5.57
2018-11-13T17:31:17.972Z,6.10
2018-11-13T17:33:48.630Z,8.73
2018-11-13T17:36:19.761Z,8.10
2018-11-13T17:38:50.153Z,8.70
2018-11-13T17:41:20.674Z,4.53
2018-11-13T17:43:51.618Z,4.20
2018-11-13T17:46:22.580Z,3.93
2018-11-13T17:48:52.850Z,4.40
2018-11-13T17:51:21.493Z,8.73
2018-11-13T17:53:50.286Z,5.80
2018-11-13T17:56:19.042Z,6.93
2018-11-13T17:58:47.853Z,4.53
2018-11-13T18:01:16.609Z,6.17
2018-11-13T18:03:45.357Z,6.73
2018-11-13T18:06:14.095Z,6.47
2018-11-13T18:08:42.847Z,5.87
2018-11-13T18:11:11.620Z,5.03
2018-11-13T18:13:40.602Z,5.17
2018-11-13T18:16:09.420Z,4.13
2018-11-13T18:18:38.554Z,7.80
2018-11-13T18:21:07.289Z,6.53
2018-11-13T18:23:36.061Z,5.67
2018-11-13T18:26:05.397Z,6.03
2018-11-13T18:28:34.219Z,5.33
2018-11-13T18:31:02.882Z,6.33
2018-11-13T18:33:31.668Z,7.73
2018-11-13T18:36:00.426Z,5.70
2018-11-13T18:38:29.221Z,8.00
2018-11-13T18:40:57.978Z,7.23
2018-11-13T18:43:26.811Z,5.80
2018-11-13T18:45:55.648Z,7.37
2018-11-13T18:48:24.597Z,5.27
2018-11-13T18:50:53.346Z,7.53
2018-11-13T18:53:22.154Z,9.67
2018-11-13T18:55:50.958Z,7.37
2018-11-13T18:58:19.699Z,8.13
2018-11-13T19:00:48.487Z,10.33
2018-11-13T19:03:17.239Z,5.17
2018-11-13T19:05:46.048Z,5.57
2018-11-13T19:08:14.794Z,5.77
2018-11-13T19:10:45.285Z,6.53
2018-11-13T19:13:15.624Z,5.50
2018-11-13T19:15:45.949Z,7.07
2018-11-13T19:18:15.102Z,5.07
2018-11-13T19:20:44.012Z,6.63
2018-11-13T19:23:12.843Z,8.23
2018-11-13T19:25:42.086Z,6.10
2018-11-13T19:28:10.940Z,9.83
2018-11-13T19:30:39.778Z,6.77
2018-11-13T19:33:08.604Z,7.20
2018-11-13T19:35:37.552Z,7.53
2018-11-13T19:38:06.822Z,7.43
2018-11-13T19:40:35.981Z,6.40
2018-11-13T19:43:06.927Z,6.53
2018-11-13T19:45:35.766Z,5.60
2018-11-13T19:48:04.632Z,9.47
2018-11-13T19:50:35.572Z,7.73
2018-11-13T19:53:04.396Z,8.57
2018-11-13T19:55:33.852Z,10.03
2018-11-13T19:58:02.721Z,8.43
2018-11-13T20:00:32.815Z,7.70
2018-11-13T20:03:02.850Z,10.17
2018-11-13T20:05:32.330Z,7.97
2018-11-13T20:08:01.271Z,8.37
2018-11-13T20:10:31.189Z,8.07
2018-11-13T20:13:01.312Z,8.37
2018-11-13T20:15:30.729Z,8.40
2018-11-13T20:17:59.601Z,10.67
2018-11-13T20:20:29.740Z,9.53
2018-11-13T20:22:59.388Z,6.30
2018-11-13T20:25:29.437Z,9.77
2018-11-13T20:27:58.301Z,7.87
2018-11-13T20:30:31.331Z,9.63
2018-11-13T20:33:00.295Z,12.13
2018-11-13T20:35:29.223Z,10.27
2018-11-13T20:37:58.371Z,9.67
2018-11-13T20:40:29.381Z,14.40
2018-11-13T20:42:59.368Z,10.73
2018-11-13T20:45:28.217Z,9.33
2018-11-13T20:47:57.110Z,8.60
2018-11-13T20:50:28.437Z,11.87
2018-11-13T20:52:57.300Z,15.87
2018-11-13T20:55:26.297Z,10.30
2018-11-13T20:57:55.095Z,11.33
2018-11-13T21:00:28.241Z,11.03
2018-11-13T21:02:57.204Z,12.20
2018-11-13T21:05:26.096Z,10.30
2018-11-13T21:07:55.115Z,11.47
2018-11-13T21:10:28.233Z,11.97
2018-11-13T21:12:56.873Z,17.13
2018-11-13T21:15:25.637Z,9.87
2018-11-13T21:17:54.504Z,13.47
2018-11-13T21:20:23.389Z,13.93
2018-11-13T21:22:53.401Z,9.83
2018-11-13T21:25:23.377Z,14.67
2018-11-13T21:27:56.777Z,12.37
2018-11-13T21:30:25.641Z,13.20
2018-11-13T21:32:54.725Z,11.37
2018-11-13T21:35:23.699Z,11.03
2018-11-13T21:37:53.748Z,18.30
2018-11-13T21:40:24.860Z,14.40
2018-11-13T21:42:54.285Z,11.07
2018-11-13T21:45:23.889Z,14.73
2018-11-13T21:47:52.780Z,15.37
2018-11-13T21:50:23.148Z,13.90
2018-11-13T21:53:55.090Z,18.33
2018-11-13T21:56:23.967Z,13.40
2018-11-13T21:58:52.764Z,13.90
2018-11-13T22:01:21.788Z,14.13
2018-11-13T22:03:50.562Z,15.13
2018-11-13T22:06:19.371Z,14.73
2018-11-13T22:08:48.173Z,18.00
2018-11-13T22:11:16.895Z,13.23
2018-11-13T22:13:45.695Z,15.83
2018-11-13T22:16:14.649Z,14.60
2018-11-13T22:18:43.166Z,19.43
2018-11-13T22:21:12.219Z,14.37
2018-11-13T22:23:41.109Z,16.57
2018-11-13T22:26:09.964Z,13.40
2018-11-13T22:28:38.892Z,17.40
2018-11-13T22:31:07.680Z,14.97
2018-11-13T22:33:36.467Z,17.43
2018-11-13T22:36:05.626Z,16.00
2018-11-13T22:38:34.359Z,21.80
2018-11-13T22:41:03.204Z,19.73
2018-11-13T22:43:31.929Z,20.73
2018-11-13T22:46:00.764Z,15.30
2018-11-13T22:48:29.605Z,18.73
2018-11-13T22:50:58.845Z,17.67
2018-11-13T22:53:30.622Z,18.50
2018-11-13T22:55:59.489Z,17.10
2018-11-13T22:58:28.575Z,17.63
2018-11-13T23:00:57.349Z,16.73
2018-11-13T23:03:26.179Z,16.70
2018-11-13T23:06:01.410Z,17.70
2018-11-13T23:08:30.286Z,22.60
2018-11-13T23:11:03.259Z,19.33
2018-11-13T23:13:32.143Z,16.83
2018-11-13T23:16:00.986Z,19.87
2018-11-13T23:18:29.854Z,19.87
2018-11-13T23:20:58.662Z,16.90
2018-11-13T23:23:27.496Z,15.77
2018-11-13T23:25:56.305Z,20.07
2018-11-13T23:28:25.234Z,18.43
2018-11-13T23:30:54.191Z,22.60
2018-11-13T23:33:22.981Z,20.97
2018-11-13T23:35:51.917Z,21.80
2018-11-13T23:38:20.753Z,19.03
2018-11-13T23:40:49.631Z,21.43
2018-11-13T23:43:18.514Z,18.83
2018-11-13T23:45:47.415Z,23.57
2018-11-13T23:48:16.238Z,24.17
2018-11-13T23:50:45.591Z,23.60
2018-11-13T23:53:14.409Z,18.50
2018-11-13T23:55:43.257Z,18.80
2018-11-13T23:58:12.077Z,25.73
